sensor_id;sensor_type;location;lat;lon;timestamp;P1;durP1;ratioP1;P2;durP2;ratioP2
28180;SDS011;15464;50.988;10.318;2023-07-02T00:00:06;1.70;;;1.60;;
28180;SDS011;15464;50.988;10.318;2023-07-02T00:02:35;2.45;;;1.60;;
28180;SDS011;15464;50.988;10.318;2023-07-02T00:05:03;2.03;;;1.83;;
28180;SDS011;15464;50.988;10.318;2023-07-02T00:07:30;2.03;;;1.70;;
28180;SDS011;15464;50.988;10.318;2023-07-02T00:09:57;2.28;;;1.80;;
28180;SDS011;15464;50.988;10.318;2023-07-02T00:12:23;3.50;;;1.90;;
28180;SDS011;15464;50.988;10.318;2023-07-02T00:14:50;1.63;;;1.50;;
28180;SDS011;15464;50.988;10.318;2023-07-02T00:17:19;3.78;;;1.80;;
28180;SDS011;15464;50.988;10.318;2023-07-02T00:19:47;2.88;;;1.52;;
28180;SDS011;15464;50.988;10.318;2023-07-02T00:22:18;2.35;;;1.77;;
28180;SDS011;15464;50.988;10.318;2023-07-02T00:24:45;3.45;;;1.73;;
28180;SDS011;15464;50.988;10.318;2023-07-02T00:27:12;2.38;;;1.70;;
28180;SDS011;15464;50.988;10.318;2023-07-02T00:29:39;2.47;;;1.85;;
28180;SDS011;15464;50.988;10.318;2023-07-02T00:32:06;2.17;;;1.90;;
28180;SDS011;15464;50.988;10.318;2023-07-02T00:34:32;2.92;;;1.55;;
28180;SDS011;15464;50.988;10.318;2023-07-02T00:36:59;2.15;;;1.60;;
28180;SDS011;15464;50.988;10.318;2023-07-02T00:39:26;3.15;;;1.92;;
28180;SDS011;15464;50.988;10.318;2023-07-02T00:41:52;2.22;;;1.85;;
28180;SDS011;15464;50.988;10.318;2023-07-02T00:44:19;4.15;;;2.00;;
28180;SDS011;15464;50.988;10.318;2023-07-02T00:46:49;3.28;;;1.67;;
28180;SDS011;15464;50.988;10.318;2023-07-02T00:49:16;2.97;;;1.92;;
28180;SDS011;15464;50.988;10.318;2023-07-02T00:51:43;3.10;;;2.03;;
28180;SDS011;15464;50.988;10.318;2023-07-02T00:54:10;2.45;;;2.10;;
28180;SDS011;15464;50.988;10.318;2023-07-02T00:56:37;2.42;;;2.20;;
28180;SDS011;15464;50.988;10.318;2023-07-02T00:59:03;3.08;;;2.03;;
28180;SDS011;15464;50.988;10.318;2023-07-02T01:01:30;5.63;;;3.20;;
28180;SDS011;15464;50.988;10.318;2023-07-02T01:04:04;3.15;;;2.70;;
28180;SDS011;15464;50.988;10.318;2023-07-02T01:06:34;5.90;;;2.47;;
28180;SDS011;15464;50.988;10.318;2023-07-02T01:09:03;4.63;;;2.28;;
28180;SDS011;15464;50.988;10.318;2023-07-02T01:11:36;2.35;;;1.70;;
28180;SDS011;15464;50.988;10.318;2023-07-02T01:14:08;2.08;;;1.88;;
28180;SDS011;15464;50.988;10.318;2023-07-02T01:16:41;2.10;;;1.90;;
28180;SDS011;15464;50.988;10.318;2023-07-02T01:22:28;2.60;;;2.17;;
28180;SDS011;15464;50.988;10.318;2023-07-02T01:24:55;4.07;;;2.20;;
28180;SDS011;15464;50.988;10.318;2023-07-02T01:27:22;3.85;;;2.38;;
28180;SDS011;15464;50.988;10.318;2023-07-02T01:29:52;3.38;;;2.55;;
28180;SDS011;15464;50.988;10.318;2023-07-02T01:32:19;2.15;;;1.95;;
28180;SDS011;15464;50.988;10.318;2023-07-02T01:34:47;2.90;;;2.10;;
28180;SDS011;15464;50.988;10.318;2023-07-02T01:37:20;2.42;;;2.00;;
28180;SDS011;15464;50.988;10.318;2023-07-02T01:39:47;3.80;;;2.50;;
28180;SDS011;15464;50.988;10.318;2023-07-02T01:42:14;2.67;;;2.10;;
28180;SDS011;15464;50.988;10.318;2023-07-02T01:44:43;4.85;;;2.20;;
28180;SDS011;15464;50.988;10.318;2023-07-02T01:47:11;3.22;;;2.47;;
28180;SDS011;15464;50.988;10.318;2023-07-02T01:49:38;3.47;;;2.42;;
28180;SDS011;15464;50.988;10.318;2023-07-02T01:52:05;3.17;;;2.30;;
28180;SDS011;15464;50.988;10.318;2023-07-02T01:54:33;3.97;;;2.13;;
28180;SDS011;15464;50.988;10.318;2023-07-02T01:57:01;3.05;;;2.20;;
28180;SDS011;15464;50.988;10.318;2023-07-02T01:59:28;4.07;;;2.35;;
28180;SDS011;15464;50.988;10.318;2023-07-02T02:01:55;4.03;;;2.28;;
28180;SDS011;15464;50.988;10.318;2023-07-02T02:04:22;3.30;;;2.28;;
28180;SDS011;15464;50.988;10.318;2023-07-02T02:06:48;2.72;;;2.05;;
28180;SDS011;15464;50.988;10.318;2023-07-02T02:09:15;3.67;;;2.20;;
28180;SDS011;15464;50.988;10.318;2023-07-02T02:11:43;2.80;;;2.50;;
28180;SDS011;15464;50.988;10.318;2023-07-02T02:14:11;4.13;;;2.63;;
28180;SDS011;15464;50.988;10.318;2023-07-02T02:16:38;2.30;;;1.88;;
28180;SDS011;15464;50.988;10.318;2023-07-02T02:19:05;2.95;;;2.35;;
28180;SDS011;15464;50.988;10.318;2023-07-02T02:21:32;3.83;;;2.70;;
28180;SDS011;15464;50.988;10.318;2023-07-02T02:23:59;4.85;;;2.22;;
28180;SDS011;15464;50.988;10.318;2023-07-02T02:26:25;6.68;;;2.67;;
28180;SDS011;15464;50.988;10.318;2023-07-02T02:28:52;2.45;;;2.22;;
28180;SDS011;15464;50.988;10.318;2023-07-02T02:31:19;3.42;;;2.70;;
28180;SDS011;15464;50.988;10.318;2023-07-02T02:33:46;3.03;;;2.40;;
28180;SDS011;15464;50.988;10.318;2023-07-02T02:36:12;4.35;;;2.35;;
28180;SDS011;15464;50.988;10.318;2023-07-02T02:38:39;4.50;;;2.28;;
28180;SDS011;15464;50.988;10.318;2023-07-02T02:41:06;2.60;;;2.30;;
28180;SDS011;15464;50.988;10.318;2023-07-02T02:43:34;4.57;;;2.30;;
28180;SDS011;15464;50.988;10.318;2023-07-02T02:46:01;2.97;;;2.17;;
28180;SDS011;15464;50.988;10.318;2023-07-02T02:48:28;2.83;;;2.33;;
28180;SDS011;15464;50.988;10.318;2023-07-02T02:50:55;3.00;;;2.28;;
28180;SDS011;15464;50.988;10.318;2023-07-02T02:53:21;6.75;;;2.70;;
28180;SDS011;15464;50.988;10.318;2023-07-02T02:55:48;2.70;;;2.08;;
28180;SDS011;15464;50.988;10.318;2023-07-02T02:58:15;2.47;;;2.28;;
28180;SDS011;15464;50.988;10.318;2023-07-02T03:00:41;2.60;;;1.90;;
28180;SDS011;15464;50.988;10.318;2023-07-02T03:03:12;2.30;;;2.10;;
28180;SDS011;15464;50.988;10.318;2023-07-02T03:05:40;3.33;;;2.20;;
28180;SDS011;15464;50.988;10.318;2023-07-02T03:08:07;2.83;;;1.95;;
28180;SDS011;15464;50.988;10.318;2023-07-02T03:10:34;2.30;;;2.10;;
28180;SDS011;15464;50.988;10.318;2023-07-02T03:13:00;3.08;;;1.90;;
28180;SDS011;15464;50.988;10.318;2023-07-02T03:15:27;3.70;;;1.98;;
28180;SDS011;15464;50.988;10.318;2023-07-02T03:17:54;3.25;;;2.03;;
28180;SDS011;15464;50.988;10.318;2023-07-02T03:20:20;2.42;;;1.65;;
28180;SDS011;15464;50.988;10.318;2023-07-02T03:22:47;3.60;;;2.15;;
28180;SDS011;15464;50.988;10.318;2023-07-02T03:25:15;3.65;;;2.00;;
28180;SDS011;15464;50.988;10.318;2023-07-02T03:27:42;2.65;;;1.70;;
28180;SDS011;15464;50.988;10.318;2023-07-02T03:30:09;3.88;;;2.20;;
28180;SDS011;15464;50.988;10.318;2023-07-02T03:32:35;2.00;;;1.80;;
28180;SDS011;15464;50.988;10.318;2023-07-02T03:35:02;2.30;;;2.10;;
28180;SDS011;15464;50.988;10.318;2023-07-02T03:37:29;3.30;;;2.03;;
28180;SDS011;15464;50.988;10.318;2023-07-02T03:39:56;2.55;;;2.10;;
28180;SDS011;15464;50.988;10.318;2023-07-02T03:42:25;3.87;;;2.00;;
28180;SDS011;15464;50.988;10.318;2023-07-02T03:44:51;3.03;;;1.90;;
28180;SDS011;15464;50.988;10.318;2023-07-02T03:47:18;2.40;;;2.20;;
28180;SDS011;15464;50.988;10.318;2023-07-02T03:49:46;3.80;;;2.00;;
28180;SDS011;15464;50.988;10.318;2023-07-02T03:52:13;4.13;;;2.35;;
28180;SDS011;15464;50.988;10.318;2023-07-02T03:54:40;4.32;;;2.13;;
28180;SDS011;15464;50.988;10.318;2023-07-02T03:57:06;4.93;;;2.10;;
28180;SDS011;15464;50.988;10.318;2023-07-02T03:59:34;2.13;;;1.90;;
28180;SDS011;15464;50.988;10.318;2023-07-02T04:02:01;3.58;;;2.30;;
28180;SDS011;15464;50.988;10.318;2023-07-02T04:04:27;3.28;;;2.08;;
28180;SDS011;15464;50.988;10.318;2023-07-02T04:06:54;2.40;;;2.10;;
28180;SDS011;15464;50.988;10.318;2023-07-02T04:09:21;4.65;;;2.45;;
28180;SDS011;15464;50.988;10.318;2023-07-02T04:11:48;2.30;;;2.00;;
28180;SDS011;15464;50.988;10.318;2023-07-02T04:14:14;2.33;;;1.92;;
28180;SDS011;15464;50.988;10.318;2023-07-02T04:16:43;5.03;;;2.17;;
28180;SDS011;15464;50.988;10.318;2023-07-02T04:19:11;3.72;;;2.45;;
28180;SDS011;15464;50.988;10.318;2023-07-02T04:21:38;2.63;;;2.40;;
28180;SDS011;15464;50.988;10.318;2023-07-02T04:24:05;4.20;;;2.25;;
28180;SDS011;15464;50.988;10.318;2023-07-02T04:26:32;2.40;;;2.03;;
28180;SDS011;15464;50.988;10.318;2023-07-02T04:29:19;4.20;;;2.58;;
28180;SDS011;15464;50.988;10.318;2023-07-02T04:31:46;2.75;;;2.00;;
28180;SDS011;15464;50.988;10.318;2023-07-02T04:34:13;4.07;;;2.45;;
28180;SDS011;15464;50.988;10.318;2023-07-02T04:36:40;4.05;;;2.08;;
28180;SDS011;15464;50.988;10.318;2023-07-02T04:39:08;4.22;;;2.25;;
28180;SDS011;15464;50.988;10.318;2023-07-02T04:41:35;4.05;;;2.30;;
28180;SDS011;15464;50.988;10.318;2023-07-02T04:44:01;2.63;;;2.30;;
28180;SDS011;15464;50.988;10.318;2023-07-02T04:46:28;3.35;;;2.03;;
28180;SDS011;15464;50.988;10.318;2023-07-02T04:48:56;2.38;;;1.90;;
28180;SDS011;15464;50.988;10.318;2023-07-02T04:51:22;3.78;;;2.30;;
28180;SDS011;15464;50.988;10.318;2023-07-02T04:53:49;6.65;;;2.42;;
28180;SDS011;15464;50.988;10.318;2023-07-02T04:56:16;3.70;;;2.30;;
28180;SDS011;15464;50.988;10.318;2023-07-02T04:58:43;3.72;;;2.63;;
28180;SDS011;15464;50.988;10.318;2023-07-02T05:01:10;3.20;;;2.20;;
28180;SDS011;15464;50.988;10.318;2023-07-02T05:03:37;2.40;;;2.17;;
28180;SDS011;15464;50.988;10.318;2023-07-02T05:06:04;2.50;;;2.30;;
28180;SDS011;15464;50.988;10.318;2023-07-02T05:08:31;3.35;;;2.92;;
28180;SDS011;15464;50.988;10.318;2023-07-02T05:10:57;2.63;;;2.40;;
28180;SDS011;15464;50.988;10.318;2023-07-02T05:13:24;3.10;;;2.47;;
28180;SDS011;15464;50.988;10.318;2023-07-02T05:15:51;3.38;;;2.78;;
28180;SDS011;15464;50.988;10.318;2023-07-02T05:18:17;3.33;;;2.63;;
28180;SDS011;15464;50.988;10.318;2023-07-02T05:20:44;2.63;;;2.42;;
28180;SDS011;15464;50.988;10.318;2023-07-02T05:23:11;2.83;;;2.40;;
28180;SDS011;15464;50.988;10.318;2023-07-02T05:25:38;3.17;;;2.88;;
28180;SDS011;15464;50.988;10.318;2023-07-02T05:28:04;4.03;;;3.00;;
28180;SDS011;15464;50.988;10.318;2023-07-02T05:30:31;3.30;;;2.90;;
28180;SDS011;15464;50.988;10.318;2023-07-02T05:32:58;3.30;;;2.78;;
28180;SDS011;15464;50.988;10.318;2023-07-02T05:35:24;3.92;;;3.38;;
28180;SDS011;15464;50.988;10.318;2023-07-02T05:37:51;3.90;;;3.50;;
28180;SDS011;15464;50.988;10.318;2023-07-02T05:40:18;5.47;;;3.17;;
28180;SDS011;15464;50.988;10.318;2023-07-02T05:42:45;6.18;;;3.20;;
28180;SDS011;15464;50.988;10.318;2023-07-02T05:45:11;4.10;;;3.50;;
28180;SDS011;15464;50.988;10.318;2023-07-02T05:47:38;5.25;;;3.47;;
28180;SDS011;15464;50.988;10.318;2023-07-02T05:50:05;6.32;;;3.75;;
28180;SDS011;15464;50.988;10.318;2023-07-02T05:52:33;5.17;;;3.87;;
28180;SDS011;15464;50.988;10.318;2023-07-02T05:55:00;4.43;;;3.92;;
28180;SDS011;15464;50.988;10.318;2023-07-02T05:57:27;6.05;;;3.85;;
28180;SDS011;15464;50.988;10.318;2023-07-02T05:59:54;4.10;;;3.65;;
28180;SDS011;15464;50.988;10.318;2023-07-02T06:02:20;4.57;;;3.60;;
28180;SDS011;15464;50.988;10.318;2023-07-02T06:04:47;6.00;;;3.88;;
28180;SDS011;15464;50.988;10.318;2023-07-02T06:07:14;6.18;;;3.90;;
28180;SDS011;15464;50.988;10.318;2023-07-02T06:09:41;5.65;;;4.15;;
28180;SDS011;15464;50.988;10.318;2023-07-02T06:12:08;6.32;;;4.28;;
28180;SDS011;15464;50.988;10.318;2023-07-02T06:14:35;4.85;;;4.10;;
28180;SDS011;15464;50.988;10.318;2023-07-02T06:17:01;7.32;;;4.30;;
28180;SDS011;15464;50.988;10.318;2023-07-02T06:19:32;6.30;;;4.38;;
28180;SDS011;15464;50.988;10.318;2023-07-02T06:21:59;6.47;;;5.20;;
28180;SDS011;15464;50.988;10.318;2023-07-02T06:24:26;8.63;;;5.03;;
28180;SDS011;15464;50.988;10.318;2023-07-02T06:26:53;6.18;;;4.68;;
28180;SDS011;15464;50.988;10.318;2023-07-02T06:29:22;6.03;;;5.22;;
28180;SDS011;15464;50.988;10.318;2023-07-02T06:31:50;6.57;;;5.05;;
28180;SDS011;15464;50.988;10.318;2023-07-02T06:34:17;5.60;;;4.68;;
28180;SDS011;15464;50.988;10.318;2023-07-02T06:36:44;7.72;;;4.68;;
28180;SDS011;15464;50.988;10.318;2023-07-02T06:39:11;6.30;;;5.28;;
28180;SDS011;15464;50.988;10.318;2023-07-02T06:41:37;7.80;;;5.15;;
28180;SDS011;15464;50.988;10.318;2023-07-02T06:44:04;9.30;;;5.30;;
28180;SDS011;15464;50.988;10.318;2023-07-02T06:46:32;9.27;;;5.35;;
28180;SDS011;15464;50.988;10.318;2023-07-02T06:48:59;10.60;;;5.28;;
28180;SDS011;15464;50.988;10.318;2023-07-02T06:51:25;5.90;;;4.72;;
28180;SDS011;15464;50.988;10.318;2023-07-02T06:53:53;6.03;;;4.47;;
28180;SDS011;15464;50.988;10.318;2023-07-02T06:56:20;8.15;;;4.30;;
28180;SDS011;15464;50.988;10.318;2023-07-02T06:58:47;4.97;;;4.18;;
28180;SDS011;15464;50.988;10.318;2023-07-02T07:01:14;6.32;;;3.90;;
28180;SDS011;15464;50.988;10.318;2023-07-02T07:03:40;7.28;;;4.38;;
28180;SDS011;15464;50.988;10.318;2023-07-02T07:06:07;6.43;;;3.72;;
28180;SDS011;15464;50.988;10.318;2023-07-02T07:08:36;6.68;;;3.80;;
28180;SDS011;15464;50.988;10.318;2023-07-02T07:11:05;5.18;;;3.67;;
28180;SDS011;15464;50.988;10.318;2023-07-02T07:13:31;6.22;;;4.25;;
28180;SDS011;15464;50.988;10.318;2023-07-02T07:15:58;7.22;;;3.90;;
28180;SDS011;15464;50.988;10.318;2023-07-02T07:18:25;8.82;;;4.00;;
28180;SDS011;15464;50.988;10.318;2023-07-02T07:20:53;5.97;;;3.97;;
28180;SDS011;15464;50.988;10.318;2023-07-02T07:23:20;7.40;;;4.18;;
28180;SDS011;15464;50.988;10.318;2023-07-02T07:25:47;6.38;;;3.97;;
28180;SDS011;15464;50.988;10.318;2023-07-02T07:28:13;6.05;;;4.00;;
28180;SDS011;15464;50.988;10.318;2023-07-02T07:30:43;6.30;;;3.90;;
28180;SDS011;15464;50.988;10.318;2023-07-02T07:33:10;5.43;;;3.83;;
28180;SDS011;15464;50.988;10.318;2023-07-02T07:35:37;5.18;;;3.75;;
28180;SDS011;15464;50.988;10.318;2023-07-02T07:38:03;9.27;;;4.15;;
28180;SDS011;15464;50.988;10.318;2023-07-02T07:40:30;5.88;;;4.35;;
28180;SDS011;15464;50.988;10.318;2023-07-02T07:42:57;6.82;;;4.05;;
28180;SDS011;15464;50.988;10.318;2023-07-02T07:45:24;7.88;;;3.75;;
28180;SDS011;15464;50.988;10.318;2023-07-02T07:50:18;5.57;;;3.67;;
28180;SDS011;15464;50.988;10.318;2023-07-02T07:52:45;5.43;;;3.50;;
28180;SDS011;15464;50.988;10.318;2023-07-02T07:55:12;5.38;;;4.05;;
28180;SDS011;15464;50.988;10.318;2023-07-02T07:57:39;7.25;;;3.53;;
28180;SDS011;15464;50.988;10.318;2023-07-02T08:00:06;6.93;;;3.95;;
28180;SDS011;15464;50.988;10.318;2023-07-02T08:02:36;10.80;;;4.55;;
28180;SDS011;15464;50.988;10.318;2023-07-02T08:05:04;7.53;;;4.07;;
28180;SDS011;15464;50.988;10.318;2023-07-02T08:07:31;8.52;;;4.68;;
28180;SDS011;15464;50.988;10.318;2023-07-02T08:09:59;7.88;;;4.18;;
28180;SDS011;15464;50.988;10.318;2023-07-02T08:12:26;8.85;;;4.28;;
28180;SDS011;15464;50.988;10.318;2023-07-02T08:14:55;7.40;;;5.05;;
28180;SDS011;15464;50.988;10.318;2023-07-02T08:17:22;6.82;;;4.30;;
28180;SDS011;15464;50.988;10.318;2023-07-02T08:19:49;6.63;;;4.50;;
28180;SDS011;15464;50.988;10.318;2023-07-02T08:22:16;6.45;;;4.47;;
28180;SDS011;15464;50.988;10.318;2023-07-02T08:24:42;8.60;;;4.53;;
28180;SDS011;15464;50.988;10.318;2023-07-02T08:27:09;5.65;;;4.60;;
28180;SDS011;15464;50.988;10.318;2023-07-02T08:29:39;6.07;;;3.95;;
28180;SDS011;15464;50.988;10.318;2023-07-02T08:32:06;6.88;;;4.35;;
28180;SDS011;15464;50.988;10.318;2023-07-02T08:34:33;7.05;;;4.28;;
28180;SDS011;15464;50.988;10.318;2023-07-02T08:37:00;6.82;;;4.47;;
28180;SDS011;15464;50.988;10.318;2023-07-02T08:39:27;8.25;;;4.03;;
28180;SDS011;15464;50.988;10.318;2023-07-02T08:41:54;6.40;;;4.80;;
28180;SDS011;15464;50.988;10.318;2023-07-02T08:44:21;6.65;;;4.07;;
28180;SDS011;15464;50.988;10.318;2023-07-02T08:46:49;5.80;;;4.40;;
28180;SDS011;15464;50.988;10.318;2023-07-02T08:49:17;7.15;;;4.70;;
28180;SDS011;15464;50.988;10.318;2023-07-02T08:51:44;6.55;;;4.88;;
28180;SDS011;15464;50.988;10.318;2023-07-02T08:54:12;6.28;;;4.50;;
28180;SDS011;15464;50.988;10.318;2023-07-02T08:56:40;7.47;;;4.75;;
28180;SDS011;15464;50.988;10.318;2023-07-02T08:59:08;8.30;;;5.18;;
28180;SDS011;15464;50.988;10.318;2023-07-02T09:01:45;7.43;;;5.20;;
28180;SDS011;15464;50.988;10.318;2023-07-02T09:04:23;6.80;;;5.72;;
28180;SDS011;15464;50.988;10.318;2023-07-02T09:07:13;7.82;;;5.10;;
28180;SDS011;15464;50.988;10.318;2023-07-02T09:09:45;9.07;;;5.85;;
28180;SDS011;15464;50.988;10.318;2023-07-02T09:15:03;10.27;;;6.05;;
28180;SDS011;15464;50.988;10.318;2023-07-02T09:17:33;10.00;;;6.38;;
28180;SDS011;15464;50.988;10.318;2023-07-02T09:20:04;9.90;;;6.20;;
28180;SDS011;15464;50.988;10.318;2023-07-02T09:22:34;8.90;;;6.25;;
28180;SDS011;15464;50.988;10.318;2023-07-02T09:25:02;9.73;;;7.15;;
28180;SDS011;15464;50.988;10.318;2023-07-02T09:27:39;9.07;;;6.47;;
28180;SDS011;15464;50.988;10.318;2023-07-02T09:30:11;10.80;;;6.38;;
28180;SDS011;15464;50.988;10.318;2023-07-02T09:32:40;11.18;;;6.63;;
28180;SDS011;15464;50.988;10.318;2023-07-02T09:35:07;10.43;;;7.38;;
28180;SDS011;15464;50.988;10.318;2023-07-02T09:37:34;8.50;;;6.85;;
28180;SDS011;15464;50.988;10.318;2023-07-02T09:40:01;8.52;;;6.53;;
28180;SDS011;15464;50.988;10.318;2023-07-02T09:42:33;10.70;;;6.97;;
28180;SDS011;15464;50.988;10.318;2023-07-02T09:45:00;11.73;;;7.03;;
28180;SDS011;15464;50.988;10.318;2023-07-02T09:47:29;9.30;;;7.15;;
28180;SDS011;15464;50.988;10.318;2023-07-02T09:49:58;9.77;;;7.30;;
28180;SDS011;15464;50.988;10.318;2023-07-02T09:52:28;9.48;;;7.38;;
28180;SDS011;15464;50.988;10.318;2023-07-02T09:54:55;10.68;;;7.38;;
28180;SDS011;15464;50.988;10.318;2023-07-02T09:57:22;11.02;;;7.80;;
28180;SDS011;15464;50.988;10.318;2023-07-02T09:59:49;10.18;;;7.72;;
28180;SDS011;15464;50.988;10.318;2023-07-02T10:02:16;11.65;;;8.10;;
28180;SDS011;15464;50.988;10.318;2023-07-02T10:04:44;10.85;;;7.18;;
28180;SDS011;15464;50.988;10.318;2023-07-02T10:07:13;10.15;;;7.53;;
28180;SDS011;15464;50.988;10.318;2023-07-02T10:09:52;11.40;;;8.35;;
28180;SDS011;15464;50.988;10.318;2023-07-02T10:14:50;12.43;;;8.68;;
28180;SDS011;15464;50.988;10.318;2023-07-02T10:19:56;11.98;;;7.88;;
28180;SDS011;15464;50.988;10.318;2023-07-02T10:22:25;11.90;;;7.97;;
28180;SDS011;15464;50.988;10.318;2023-07-02T10:24:56;12.25;;;7.95;;
28180;SDS011;15464;50.988;10.318;2023-07-02T10:30:05;13.98;;;8.02;;
28180;SDS011;15464;50.988;10.318;2023-07-02T10:32:34;13.60;;;9.02;;
28180;SDS011;15464;50.988;10.318;2023-07-02T10:35:12;11.73;;;8.35;;
28180;SDS011;15464;50.988;10.318;2023-07-02T10:37:43;11.82;;;8.18;;
28180;SDS011;15464;50.988;10.318;2023-07-02T10:40:11;14.85;;;8.18;;
28180;SDS011;15464;50.988;10.318;2023-07-02T10:42:47;12.63;;;8.65;;
28180;SDS011;15464;50.988;10.318;2023-07-02T10:45:16;11.90;;;7.93;;
28180;SDS011;15464;50.988;10.318;2023-07-02T10:47:43;10.90;;;7.57;;
28180;SDS011;15464;50.988;10.318;2023-07-02T10:50:14;12.13;;;7.90;;
28180;SDS011;15464;50.988;10.318;2023-07-02T10:52:42;12.57;;;8.00;;
28180;SDS011;15464;50.988;10.318;2023-07-02T10:55:09;14.70;;;8.35;;
28180;SDS011;15464;50.988;10.318;2023-07-02T10:57:36;11.93;;;8.45;;
28180;SDS011;15464;50.988;10.318;2023-07-02T11:00:06;15.15;;;8.73;;
28180;SDS011;15464;50.988;10.318;2023-07-02T11:02:37;10.35;;;8.27;;
28180;SDS011;15464;50.988;10.318;2023-07-02T11:05:07;12.25;;;9.10;;
28180;SDS011;15464;50.988;10.318;2023-07-02T11:07:41;10.95;;;8.73;;
28180;SDS011;15464;50.988;10.318;2023-07-02T11:10:09;13.13;;;8.88;;
28180;SDS011;15464;50.988;10.318;2023-07-02T11:12:36;14.63;;;9.45;;
28180;SDS011;15464;50.988;10.318;2023-07-02T11:15:07;12.68;;;9.13;;
28180;SDS011;15464;50.988;10.318;2023-07-02T11:17:34;12.65;;;9.05;;
28180;SDS011;15464;50.988;10.318;2023-07-02T11:20:01;18.48;;;9.68;;
28180;SDS011;15464;50.988;10.318;2023-07-02T11:22:34;13.38;;;9.70;;
28180;SDS011;15464;50.988;10.318;2023-07-02T11:25:17;18.25;;;10.30;;
28180;SDS011;15464;50.988;10.318;2023-07-02T11:27:45;16.67;;;8.85;;
28180;SDS011;15464;50.988;10.318;2023-07-02T11:30:12;15.00;;;9.20;;
28180;SDS011;15464;50.988;10.318;2023-07-02T11:32:57;15.00;;;10.52;;
28180;SDS011;15464;50.988;10.318;2023-07-02T11:35:34;15.88;;;9.85;;
28180;SDS011;15464;50.988;10.318;2023-07-02T11:38:01;14.15;;;9.43;;
28180;SDS011;15464;50.988;10.318;2023-07-02T11:40:28;14.57;;;9.15;;
28180;SDS011;15464;50.988;10.318;2023-07-02T11:42:55;18.05;;;9.65;;
28180;SDS011;15464;50.988;10.318;2023-07-02T11:45:22;12.55;;;9.55;;
28180;SDS011;15464;50.988;10.318;2023-07-02T11:47:48;15.48;;;10.23;;
28180;SDS011;15464;50.988;10.318;2023-07-02T11:50:15;16.83;;;10.18;;
28180;SDS011;15464;50.988;10.318;2023-07-02T11:52:52;13.57;;;9.65;;
28180;SDS011;15464;50.988;10.318;2023-07-02T11:55:19;15.40;;;10.23;;
28180;SDS011;15464;50.988;10.318;2023-07-02T11:57:45;15.82;;;10.88;;
28180;SDS011;15464;50.988;10.318;2023-07-02T12:00:13;14.63;;;10.63;;
28180;SDS011;15464;50.988;10.318;2023-07-02T12:02:40;16.80;;;10.60;;
28180;SDS011;15464;50.988;10.318;2023-07-02T12:05:07;12.85;;;9.55;;
28180;SDS011;15464;50.988;10.318;2023-07-02T12:07:38;15.13;;;10.23;;
28180;SDS011;15464;50.988;10.318;2023-07-02T12:10:05;11.98;;;9.88;;
28180;SDS011;15464;50.988;10.318;2023-07-02T12:12:33;15.65;;;10.20;;
28180;SDS011;15464;50.988;10.318;2023-07-02T12:15:00;15.52;;;10.38;;
28180;SDS011;15464;50.988;10.318;2023-07-02T12:17:27;12.00;;;9.48;;
28180;SDS011;15464;50.988;10.318;2023-07-02T12:19:53;12.27;;;8.93;;
28180;SDS011;15464;50.988;10.318;2023-07-02T12:22:20;13.98;;;9.27;;
28180;SDS011;15464;50.988;10.318;2023-07-02T12:24:48;15.07;;;9.60;;
28180;SDS011;15464;50.988;10.318;2023-07-02T12:27:16;12.82;;;9.65;;
28180;SDS011;15464;50.988;10.318;2023-07-02T12:29:43;15.10;;;9.60;;
28180;SDS011;15464;50.988;10.318;2023-07-02T12:32:09;13.15;;;9.35;;
28180;SDS011;15464;50.988;10.318;2023-07-02T12:34:36;14.52;;;10.15;;
28180;SDS011;15464;50.988;10.318;2023-07-02T12:37:03;10.60;;;8.77;;
28180;SDS011;15464;50.988;10.318;2023-07-02T12:39:30;14.98;;;9.95;;
28180;SDS011;15464;50.988;10.318;2023-07-02T12:41:57;12.73;;;8.93;;
28180;SDS011;15464;50.988;10.318;2023-07-02T12:44:24;13.20;;;8.75;;
28180;SDS011;15464;50.988;10.318;2023-07-02T12:46:51;12.05;;;8.50;;
28180;SDS011;15464;50.988;10.318;2023-07-02T12:49:17;11.25;;;8.75;;
28180;SDS011;15464;50.988;10.318;2023-07-02T12:51:44;11.25;;;8.77;;
28180;SDS011;15464;50.988;10.318;2023-07-02T12:54:11;15.20;;;8.10;;
28180;SDS011;15464;50.988;10.318;2023-07-02T12:56:37;12.70;;;8.63;;
28180;SDS011;15464;50.988;10.318;2023-07-02T12:59:04;11.55;;;8.40;;
28180;SDS011;15464;50.988;10.318;2023-07-02T13:01:31;18.80;;;9.82;;
28180;SDS011;15464;50.988;10.318;2023-07-02T13:03:58;13.98;;;9.10;;
28180;SDS011;15464;50.988;10.318;2023-07-02T13:06:26;12.95;;;9.23;;
28180;SDS011;15464;50.988;10.318;2023-07-02T13:08:54;13.65;;;8.80;;
28180;SDS011;15464;50.988;10.318;2023-07-02T13:11:22;13.02;;;8.40;;
28180;SDS011;15464;50.988;10.318;2023-07-02T13:13:48;13.68;;;9.05;;
28180;SDS011;15464;50.988;10.318;2023-07-02T13:16:15;13.15;;;8.95;;
28180;SDS011;15464;50.988;10.318;2023-07-02T13:18:42;14.63;;;9.07;;
28180;SDS011;15464;50.988;10.318;2023-07-02T13:21:08;12.63;;;8.35;;
28180;SDS011;15464;50.988;10.318;2023-07-02T13:23:35;12.30;;;8.27;;
28180;SDS011;15464;50.988;10.318;2023-07-02T13:26:02;24.75;;;8.25;;
28180;SDS011;15464;50.988;10.318;2023-07-02T13:28:28;11.77;;;8.10;;
28180;SDS011;15464;50.988;10.318;2023-07-02T13:30:55;11.00;;;7.43;;
28180;SDS011;15464;50.988;10.318;2023-07-02T13:33:22;11.77;;;8.95;;
28180;SDS011;15464;50.988;10.318;2023-07-02T13:35:50;14.10;;;8.73;;
28180;SDS011;15464;50.988;10.318;2023-07-02T13:38:17;11.23;;;8.55;;
28180;SDS011;15464;50.988;10.318;2023-07-02T13:40:44;9.65;;;8.20;;
28180;SDS011;15464;50.988;10.318;2023-07-02T13:43:10;10.73;;;7.97;;
28180;SDS011;15464;50.988;10.318;2023-07-02T13:45:37;14.52;;;9.48;;
28180;SDS011;15464;50.988;10.318;2023-07-02T13:48:04;12.25;;;8.55;;
28180;SDS011;15464;50.988;10.318;2023-07-02T13:50:31;12.85;;;8.35;;
28180;SDS011;15464;50.988;10.318;2023-07-02T13:52:58;11.80;;;8.45;;
28180;SDS011;15464;50.988;10.318;2023-07-02T13:55:25;12.10;;;8.48;;
28180;SDS011;15464;50.988;10.318;2023-07-02T14:00:22;12.70;;;8.55;;
28180;SDS011;15464;50.988;10.318;2023-07-02T14:02:50;12.32;;;8.05;;
28180;SDS011;15464;50.988;10.318;2023-07-02T14:05:16;15.40;;;8.60;;
28180;SDS011;15464;50.988;10.318;2023-07-02T14:07:43;12.15;;;8.05;;
28180;SDS011;15464;50.988;10.318;2023-07-02T14:10:10;17.85;;;9.23;;
28180;SDS011;15464;50.988;10.318;2023-07-02T14:12:39;12.73;;;8.57;;
28180;SDS011;15464;50.988;10.318;2023-07-02T14:15:07;14.43;;;8.48;;
28180;SDS011;15464;50.988;10.318;2023-07-02T14:17:35;11.25;;;8.48;;
28180;SDS011;15464;50.988;10.318;2023-07-02T14:20:03;12.73;;;8.93;;
28180;SDS011;15464;50.988;10.318;2023-07-02T14:22:30;13.10;;;8.65;;
28180;SDS011;15464;50.988;10.318;2023-07-02T14:24:57;15.32;;;8.88;;
28180;SDS011;15464;50.988;10.318;2023-07-02T14:27:23;12.63;;;9.18;;
28180;SDS011;15464;50.988;10.318;2023-07-02T14:29:50;10.68;;;8.70;;
28180;SDS011;15464;50.988;10.318;2023-07-02T14:32:17;12.77;;;8.30;;
28180;SDS011;15464;50.988;10.318;2023-07-02T14:34:44;11.93;;;8.88;;
28180;SDS011;15464;50.988;10.318;2023-07-02T14:37:10;11.93;;;8.48;;
28180;SDS011;15464;50.988;10.318;2023-07-02T14:39:37;12.63;;;8.10;;
28180;SDS011;15464;50.988;10.318;2023-07-02T14:42:04;17.10;;;9.65;;
28180;SDS011;15464;50.988;10.318;2023-07-02T14:44:33;17.52;;;10.05;;
28180;SDS011;15464;50.988;10.318;2023-07-02T14:49:28;13.50;;;8.80;;
28180;SDS011;15464;50.988;10.318;2023-07-02T14:51:55;15.43;;;9.38;;